createdAt,value
2018-03-27T00:02:05.343Z,15.37
2018-03-27T00:04:33.587Z,17.07
2018-03-27T00:07:01.045Z,16.87
2018-03-27T00:09:28.483Z,15.10
2018-03-27T00:11:55.951Z,18.13
2018-03-27T00:14:23.399Z,17.90
2018-03-27T00:16:50.944Z,15.70
2018-03-27T00:19:18.387Z,15.67
2018-03-27T00:21:45.844Z,16.83
2018-03-27T00:24:13.314Z,16.73
2018-03-27T00:26:52.633Z,17.57
2018-03-27T00:29:31.970Z,17.37
2018-03-27T00:32:11.301Z,15.63
2018-03-27T00:34:50.724Z,16.77
2018-03-27T00:37:30.835Z,16.47
2018-03-27T00:40:10.196Z,16.60
2018-03-27T00:42:56.383Z,15.50
2018-03-27T00:45:23.828Z,17.90
2018-03-27T00:47:51.302Z,17.10
2018-03-27T00:50:18.766Z,15.60
2018-03-27T00:52:46.998Z,17.80
2018-03-27T00:55:14.452Z,15.90
2018-03-27T00:57:41.883Z,16.67
2018-03-27T01:00:09.371Z,17.37
2018-03-27T01:02:36.830Z,16.27
2018-03-27T01:05:10.158Z,19.33
2018-03-27T01:07:37.627Z,18.33
2018-03-27T01:10:05.844Z,17.67
2018-03-27T01:12:33.299Z,16.73
2018-03-27T01:15:00.786Z,17.70
2018-03-27T01:17:28.256Z,18.07
2018-03-27T01:19:55.729Z,18.17
2018-03-27T01:22:23.207Z,16.77
2018-03-27T01:24:50.659Z,18.07
2018-03-27T01:27:18.855Z,19.83
2018-03-27T01:29:46.368Z,16.20
2018-03-27T01:32:13.801Z,16.73
2018-03-27T01:34:41.264Z,17.70
2018-03-27T01:37:08.699Z,18.23
2018-03-27T01:39:36.196Z,16.77
2018-03-27T01:42:03.661Z,19.07
2018-03-27T01:44:31.136Z,18.23
2018-03-27T01:46:58.572Z,16.47
2018-03-27T01:49:26.816Z,16.83
2018-03-27T01:51:54.260Z,18.43
2018-03-27T01:54:21.725Z,17.37
2018-03-27T01:56:49.193Z,17.90
2018-03-27T01:59:16.667Z,14.43
2018-03-27T02:01:44.122Z,17.40
2018-03-27T02:04:11.582Z,18.30
2018-03-27T02:06:39.058Z,17.73
2018-03-27T02:09:07.271Z,18.57
2018-03-27T02:11:40.524Z,18.70
2018-03-27T02:14:14.323Z,17.23
2018-03-27T02:16:47.546Z,18.97
2018-03-27T02:19:20.633Z,17.87
2018-03-27T02:21:47.593Z,19.10
2018-03-27T02:24:27.855Z,17.97
2018-03-27T02:26:55.310Z,21.30
2018-03-27T02:29:22.776Z,19.30
2018-03-27T02:31:50.218Z,19.40
2018-03-27T02:34:17.682Z,19.30
2018-03-27T02:36:45.156Z,17.10
2018-03-27T02:39:12.633Z,21.10
2018-03-27T02:41:40.072Z,19.20
2018-03-27T02:44:08.992Z,19.63
2018-03-27T02:46:36.473Z,19.33
2018-03-27T02:49:04.686Z,18.40
2018-03-27T02:51:32.166Z,20.30
2018-03-27T02:53:59.615Z,19.50
2018-03-27T02:56:27.076Z,19.53
2018-03-27T02:58:54.547Z,19.33
2018-03-27T03:01:21.992Z,19.83
2018-03-27T03:03:49.480Z,19.90
2018-03-27T03:06:17.694Z,19.43
2018-03-27T03:08:45.173Z,19.70
2018-03-27T03:11:12.663Z,20.20
2018-03-27T03:13:40.923Z,20.30
2018-03-27T03:16:08.388Z,21.10
2018-03-27T03:18:35.842Z,20.77
2018-03-27T03:21:03.308Z,18.80
2018-03-27T03:23:30.769Z,20.83
2018-03-27T03:25:58.995Z,20.53
2018-03-27T03:28:26.455Z,20.50
2018-03-27T03:30:53.948Z,20.10
2018-03-27T03:33:21.398Z,20.70
2018-03-27T03:35:48.841Z,20.67
2018-03-27T03:38:16.317Z,19.43
2018-03-27T03:40:43.791Z,20.33
2018-03-27T03:43:12.030Z,21.07
2018-03-27T03:45:39.479Z,22.70
2018-03-27T03:48:06.946Z,21.00
2018-03-27T03:50:34.403Z,20.83
2018-03-27T03:53:01.863Z,20.13
2018-03-27T03:55:29.319Z,20.33
2018-03-27T03:57:56.825Z,21.30
2018-03-27T04:00:24.294Z,23.07
2018-03-27T04:02:51.753Z,20.80
2018-03-27T04:05:19.206Z,22.73
2018-03-27T04:07:46.675Z,18.93
2018-03-27T04:10:14.168Z,22.03
2018-03-27T04:12:41.616Z,21.33
2018-03-27T04:15:09.065Z,21.43
2018-03-27T04:17:36.632Z,21.27
2018-03-27T04:20:04.088Z,22.13
2018-03-27T04:22:31.546Z,20.63
2018-03-27T04:24:59.016Z,21.17
2018-03-27T04:27:26.475Z,22.57
2018-03-27T04:29:53.941Z,21.70
2018-03-27T04:32:21.431Z,22.73
2018-03-27T04:34:48.875Z,22.90
2018-03-27T04:37:17.087Z,19.43
2018-03-27T04:39:44.588Z,20.83
2018-03-27T04:42:12.023Z,21.13
2018-03-27T04:44:39.504Z,23.17
2018-03-27T04:47:07.359Z,23.37
2018-03-27T04:49:34.817Z,21.27
2018-03-27T04:52:02.307Z,23.93
2018-03-27T04:54:30.530Z,21.93
2018-03-27T04:56:57.980Z,22.67
2018-03-27T04:59:25.463Z,21.90
2018-03-27T05:01:52.930Z,22.90
2018-03-27T05:04:21.189Z,23.90
2018-03-27T05:06:48.664Z,23.33
2018-03-27T05:09:16.122Z,23.33
2018-03-27T05:11:44.735Z,22.27
2018-03-27T05:14:12.166Z,21.50
2018-03-27T05:16:40.412Z,24.13
2018-03-27T05:19:07.884Z,23.83
2018-03-27T05:21:35.361Z,22.17
2018-03-27T05:24:03.582Z,22.10
2018-03-27T05:26:31.113Z,19.90
2018-03-27T05:28:58.499Z,18.13
2018-03-27T05:31:26.356Z,23.20
2018-03-27T05:33:53.814Z,22.10
2018-03-27T05:36:21.275Z,23.20
2018-03-27T05:38:48.824Z,22.10
2018-03-27T05:41:16.285Z,21.90
2018-03-27T05:43:43.752Z,22.80
2018-03-27T05:46:11.212Z,23.73
2018-03-27T05:48:38.687Z,22.63
2018-03-27T05:51:06.135Z,23.93
2018-03-27T05:53:33.597Z,23.20
2018-03-27T05:56:01.088Z,17.20
2018-03-27T05:58:28.549Z,24.40
2018-03-27T06:00:56.788Z,23.67
2018-03-27T06:03:24.247Z,23.23
2018-03-27T06:05:51.735Z,22.07
2018-03-27T06:08:19.945Z,18.80
2018-03-27T06:10:47.391Z,21.37
2018-03-27T06:13:14.847Z,16.33
2018-03-27T06:15:42.314Z,19.93
2018-03-27T06:18:09.768Z,21.70
2018-03-27T06:20:37.238Z,22.20
2018-03-27T06:23:04.713Z,15.63
2018-03-27T06:25:32.156Z,21.63
2018-03-27T06:27:59.717Z,20.50
2018-03-27T06:30:27.186Z,21.67
2018-03-27T06:32:54.647Z,22.93
2018-03-27T06:35:22.127Z,21.30
2018-03-27T06:37:49.582Z,23.27
2018-03-27T06:40:17.027Z,22.10
2018-03-27T06:42:44.513Z,22.00
2018-03-27T06:45:12.732Z,20.57
2018-03-27T06:47:40.223Z,22.73
2018-03-27T06:50:07.640Z,21.50
2018-03-27T06:52:35.113Z,22.70
2018-03-27T06:55:02.552Z,21.77
2018-03-27T06:57:29.990Z,23.00
2018-03-27T06:59:57.469Z,22.70
2018-03-27T07:02:24.920Z,22.73
2018-03-27T07:04:52.363Z,21.87
2018-03-27T07:07:19.848Z,23.70
2018-03-27T07:09:47.329Z,22.47
2018-03-27T07:12:14.792Z,18.10
2018-03-27T07:14:42.273Z,21.13
2018-03-27T07:17:09.762Z,20.77
2018-03-27T07:19:37.270Z,22.50
2018-03-27T07:22:04.669Z,21.60
2018-03-27T07:24:32.136Z,20.67
2018-03-27T07:26:59.625Z,21.30
2018-03-27T07:29:27.053Z,22.10
2018-03-27T07:31:54.531Z,22.57
2018-03-27T07:34:22.004Z,21.97
2018-03-27T07:36:49.468Z,20.67
2018-03-27T07:39:16.919Z,21.80
2018-03-27T07:41:44.406Z,19.70
2018-03-27T07:44:12.623Z,20.40
2018-03-27T07:46:40.190Z,20.50
2018-03-27T07:49:07.640Z,20.50
2018-03-27T07:51:35.104Z,21.83
2018-03-27T07:54:02.568Z,21.17
2018-03-27T07:56:30.044Z,21.00
2018-03-27T07:58:58.273Z,21.33
2018-03-27T08:01:25.721Z,24.53
2018-03-27T08:03:53.198Z,22.20
2018-03-27T08:06:20.653Z,21.10
2018-03-27T08:08:48.119Z,19.40
2018-03-27T08:11:15.606Z,21.40
2018-03-27T08:13:43.055Z,19.47
2018-03-27T08:16:10.499Z,17.93
2018-03-27T08:18:37.955Z,19.63
2018-03-27T08:21:05.407Z,18.50
2018-03-27T08:23:32.945Z,16.90
2018-03-27T08:28:34.230Z,14.67
2018-03-27T08:31:01.703Z,16.00
2018-03-27T08:33:29.157Z,14.40
2018-03-27T08:35:56.616Z,14.80
2018-03-27T08:38:24.097Z,14.53
2018-03-27T08:40:52.323Z,14.50
2018-03-27T08:43:19.829Z,13.90
2018-03-27T08:45:47.251Z,15.17
2018-03-27T08:48:14.720Z,14.33
2018-03-27T08:50:42.178Z,13.43
2018-03-27T08:53:09.632Z,14.67
2018-03-27T08:55:37.115Z,13.07
2018-03-27T08:58:05.329Z,14.03
2018-03-27T09:00:32.792Z,13.90
2018-03-27T09:03:00.255Z,14.57
2018-03-27T09:05:27.761Z,14.60
2018-03-27T09:07:55.219Z,14.87
2018-03-27T09:10:23.440Z,16.57
2018-03-27T09:12:50.922Z,14.50
2018-03-27T09:15:18.444Z,15.70
2018-03-27T09:17:45.882Z,13.83
2018-03-27T09:20:14.083Z,15.83
2018-03-27T09:22:41.558Z,13.07
2018-03-27T09:25:09.019Z,13.53
2018-03-27T09:27:36.555Z,13.70
2018-03-27T09:30:04.011Z,14.30
2018-03-27T09:32:31.453Z,16.83
2018-03-27T09:34:59.038Z,16.50
2018-03-27T09:37:26.523Z,16.40
2018-03-27T09:39:53.975Z,16.33
2018-03-27T09:42:21.428Z,17.97
2018-03-27T09:44:49.673Z,16.07
2018-03-27T09:47:17.159Z,16.60
2018-03-27T09:49:44.599Z,16.40
2018-03-27T09:52:12.053Z,16.93
2018-03-27T09:54:39.958Z,15.93
2018-03-27T09:57:07.396Z,15.77
2018-03-27T09:59:34.873Z,14.67
2018-03-27T10:02:02.350Z,13.40
2018-03-27T10:04:30.562Z,14.73
2018-03-27T10:06:58.117Z,13.73
2018-03-27T10:09:25.576Z,14.87
2018-03-27T10:11:53.016Z,15.27
2018-03-27T10:14:20.483Z,14.90
2018-03-27T10:16:47.961Z,14.13
2018-03-27T10:19:21.367Z,13.60
2018-03-27T10:21:48.832Z,11.77
2018-03-27T10:24:16.310Z,11.10
2018-03-27T10:26:43.756Z,5.37
2018-03-27T10:29:11.195Z,6.80
2018-03-27T10:31:38.673Z,7.37
2018-03-27T10:34:06.116Z,5.60
2018-03-27T10:36:33.572Z,5.30
2018-03-27T10:39:01.033Z,3.93
2018-03-27T10:41:28.467Z,3.97
2018-03-27T10:43:55.934Z,6.30
2018-03-27T10:46:23.389Z,4.63
2018-03-27T10:48:50.835Z,5.00
2018-03-27T10:51:18.298Z,5.90
2018-03-27T10:53:45.745Z,5.93
2018-03-27T10:56:13.203Z,5.57
2018-03-27T10:58:40.646Z,5.63
2018-03-27T11:01:08.250Z,6.87
2018-03-27T11:03:35.710Z,4.87
2018-03-27T11:06:03.156Z,4.83
2018-03-27T11:08:30.613Z,4.60
2018-03-27T11:10:58.081Z,4.77
2018-03-27T11:13:25.524Z,4.43
2018-03-27T11:15:52.964Z,4.40
2018-03-27T11:18:20.434Z,4.50
2018-03-27T11:20:47.896Z,5.10
2018-03-27T11:23:16.191Z,5.07
2018-03-27T11:25:43.622Z,4.97
2018-03-27T11:28:11.099Z,4.50
2018-03-27T11:30:38.542Z,5.53
2018-03-27T11:33:05.995Z,5.50
2018-03-27T11:35:33.448Z,5.10
2018-03-27T11:40:34.681Z,4.40
2018-03-27T11:43:02.150Z,4.33
2018-03-27T11:45:29.708Z,4.77
2018-03-27T11:47:57.127Z,4.67
2018-03-27T11:50:25.368Z,4.37
2018-03-27T11:52:52.808Z,5.03
2018-03-27T11:55:20.299Z,4.83
2018-03-27T11:57:47.759Z,5.43
2018-03-27T12:00:15.195Z,4.83
2018-03-27T12:02:42.644Z,5.87
2018-03-27T12:05:10.107Z,5.30
2018-03-27T12:07:37.569Z,5.20
2018-03-27T12:10:05.009Z,5.60
2018-03-27T12:12:32.481Z,5.60
2018-03-27T12:14:59.929Z,5.30
2018-03-27T12:17:27.396Z,5.97
2018-03-27T12:19:54.840Z,5.57
2018-03-27T12:22:22.312Z,4.90
2018-03-27T12:24:49.779Z,5.53
2018-03-27T12:27:18.887Z,5.37
2018-03-27T12:29:46.320Z,4.87
2018-03-27T12:32:13.846Z,4.93
2018-03-27T12:34:41.300Z,5.70
2018-03-27T12:37:08.815Z,5.20
2018-03-27T12:39:36.259Z,4.60
2018-03-27T12:42:03.775Z,5.03
2018-03-27T12:44:31.231Z,5.00
2018-03-27T12:46:58.683Z,5.37
2018-03-27T12:49:26.140Z,5.17
2018-03-27T12:51:53.705Z,7.00
2018-03-27T12:54:21.164Z,5.60
2018-03-27T12:56:48.615Z,6.20
2018-03-27T12:59:16.070Z,5.50
2018-03-27T13:01:43.519Z,6.17
2018-03-27T13:04:11.741Z,4.60
2018-03-27T13:06:39.184Z,6.17
2018-03-27T13:09:06.660Z,5.87
2018-03-27T13:11:34.103Z,6.13
2018-03-27T13:14:01.548Z,5.47
2018-03-27T13:16:29.003Z,7.00
2018-03-27T13:18:56.471Z,5.73
2018-03-27T13:21:23.935Z,6.13
2018-03-27T13:23:51.388Z,7.43
2018-03-27T13:26:18.884Z,6.60
2018-03-27T13:28:47.086Z,9.23
2018-03-27T13:31:14.551Z,6.93
2018-03-27T13:33:42.008Z,5.87
2018-03-27T13:36:09.461Z,5.40
2018-03-27T13:38:36.927Z,6.83
2018-03-27T13:41:04.413Z,6.60
2018-03-27T13:43:31.851Z,5.50
2018-03-27T13:45:59.326Z,6.13
2018-03-27T13:48:26.771Z,7.70
2018-03-27T13:50:54.250Z,6.23
2018-03-27T13:53:21.689Z,6.10
2018-03-27T13:55:49.150Z,6.80
2018-03-27T13:58:16.607Z,6.97
2018-03-27T14:00:44.057Z,11.20
2018-03-27T14:03:11.517Z,6.40
2018-03-27T14:05:38.953Z,10.40
2018-03-27T14:08:06.442Z,8.10
2018-03-27T14:10:33.885Z,7.93
2018-03-27T14:13:01.421Z,7.80
2018-03-27T14:15:28.848Z,9.17
2018-03-27T14:17:57.070Z,8.00
2018-03-27T14:20:24.509Z,8.53
2018-03-27T14:22:51.964Z,7.13
2018-03-27T14:25:19.416Z,7.43
2018-03-27T14:27:46.858Z,7.97
2018-03-27T14:30:15.092Z,7.10
2018-03-27T14:32:42.547Z,7.20
2018-03-27T14:35:09.998Z,6.97
2018-03-27T14:37:37.450Z,8.40
2018-03-27T14:40:05.698Z,8.63
2018-03-27T14:42:33.157Z,8.67
2018-03-27T14:45:00.616Z,8.30
2018-03-27T14:47:28.091Z,7.23
2018-03-27T14:49:55.526Z,8.30
2018-03-27T14:52:22.997Z,8.33
2018-03-27T14:54:50.455Z,7.23
2018-03-27T14:57:17.927Z,7.80
2018-03-27T14:59:45.384Z,9.00
2018-03-27T15:02:12.844Z,10.40
2018-03-27T15:04:40.308Z,8.80
2018-03-27T15:07:07.768Z,8.40
2018-03-27T15:09:35.235Z,10.20
2018-03-27T15:12:02.667Z,10.00
2018-03-27T15:14:30.146Z,9.03
2018-03-27T15:16:57.574Z,8.87
2018-03-27T15:19:25.036Z,9.40
2018-03-27T15:21:52.492Z,9.60
2018-03-27T15:24:19.956Z,10.80
2018-03-27T15:26:47.412Z,10.13
2018-03-27T15:29:14.873Z,11.23
2018-03-27T15:31:42.349Z,10.40
2018-03-27T15:34:09.785Z,11.47
2018-03-27T15:36:37.263Z,9.67
2018-03-27T15:39:05.628Z,10.97
2018-03-27T15:41:33.085Z,11.00
2018-03-27T15:44:00.552Z,11.00
2018-03-27T15:46:28.000Z,11.80
2018-03-27T15:48:55.559Z,12.10
2018-03-27T15:51:23.020Z,9.07
2018-03-27T15:53:50.479Z,11.53
2018-03-27T15:56:17.919Z,11.57
2018-03-27T15:58:45.449Z,9.47
2018-03-27T16:01:12.905Z,10.43
2018-03-27T16:03:40.365Z,11.40
2018-03-27T16:06:07.830Z,12.80
2018-03-27T16:08:35.316Z,11.93
2018-03-27T16:11:02.815Z,12.03
2018-03-27T16:13:30.292Z,12.37
2018-03-27T16:15:58.517Z,13.03
2018-03-27T16:18:26.387Z,12.50
2018-03-27T16:20:53.850Z,13.77
2018-03-27T16:23:21.961Z,12.67
2018-03-27T16:25:49.444Z,13.77
2018-03-27T16:28:16.894Z,12.10
2018-03-27T16:30:44.362Z,15.73
2018-03-27T16:33:11.820Z,13.93
2018-03-27T16:35:39.358Z,13.13
2018-03-27T16:38:06.799Z,12.90
2018-03-27T16:40:34.280Z,13.40
2018-03-27T16:43:01.725Z,13.97
2018-03-27T16:45:29.202Z,13.70
2018-03-27T16:47:57.426Z,12.90
2018-03-27T16:50:25.730Z,14.27
2018-03-27T16:52:53.167Z,12.73
2018-03-27T16:55:20.604Z,13.47
2018-03-27T16:57:48.847Z,12.33
2018-03-27T17:00:16.308Z,11.67
2018-03-27T17:02:43.752Z,11.83
2018-03-27T17:05:11.295Z,11.43
2018-03-27T17:07:38.762Z,12.10
2018-03-27T17:10:06.231Z,11.80
2018-03-27T17:12:33.691Z,12.03
2018-03-27T17:15:06.994Z,9.87
2018-03-27T17:17:34.514Z,12.73
2018-03-27T17:20:01.939Z,12.47
2018-03-27T17:22:30.164Z,11.20
2018-03-27T17:24:57.682Z,11.60
2018-03-27T17:27:25.911Z,10.83
2018-03-27T17:29:53.347Z,12.03
2018-03-27T17:32:20.824Z,11.13
2018-03-27T17:34:48.283Z,11.33
2018-03-27T17:37:15.810Z,12.17
2018-03-27T17:39:43.355Z,11.37
2018-03-27T17:42:10.828Z,11.70
2018-03-27T17:44:38.320Z,10.93
2018-03-27T17:47:06.558Z,11.67
2018-03-27T17:49:34.117Z,12.23
2018-03-27T17:52:01.589Z,12.00
2018-03-27T17:54:29.035Z,11.40
2018-03-27T17:56:56.484Z,10.80
2018-03-27T17:59:23.971Z,11.43
2018-03-27T18:01:51.509Z,10.03
2018-03-27T18:04:18.986Z,12.97
2018-03-27T18:06:46.435Z,12.60
2018-03-27T18:09:15.108Z,14.63
2018-03-27T18:11:42.588Z,13.13
2018-03-27T18:14:10.054Z,12.57
2018-03-27T18:16:37.507Z,13.90
2018-03-27T18:19:04.977Z,11.10
2018-03-27T18:21:32.422Z,12.37
2018-03-27T18:23:59.943Z,13.10
2018-03-27T18:26:27.387Z,13.10
2018-03-27T18:28:54.839Z,11.93
2018-03-27T18:31:23.054Z,11.67
2018-03-27T18:33:51.267Z,13.40
2018-03-27T18:36:18.743Z,15.17
2018-03-27T18:38:46.967Z,12.60
2018-03-27T18:41:14.446Z,13.70
2018-03-27T18:43:41.876Z,13.47
2018-03-27T18:46:09.339Z,13.93
2018-03-27T18:48:36.806Z,13.43
2018-03-27T18:51:04.244Z,13.90
2018-03-27T18:53:31.707Z,14.10
2018-03-27T18:55:59.158Z,13.33
2018-03-27T18:58:26.597Z,15.37
2018-03-27T19:00:54.059Z,13.37
2018-03-27T19:03:21.535Z,14.60
2018-03-27T19:05:49.012Z,12.27
2018-03-27T19:08:16.459Z,13.97
2018-03-27T19:10:43.939Z,13.37
2018-03-27T19:13:11.399Z,13.80
2018-03-27T19:15:38.867Z,14.80
2018-03-27T19:18:07.077Z,14.63
2018-03-27T19:20:34.527Z,15.67
2018-03-27T19:23:01.998Z,14.33
2018-03-27T19:25:30.247Z,14.23
2018-03-27T19:27:58.476Z,16.00
2018-03-27T19:30:25.961Z,15.77
2018-03-27T19:32:54.187Z,13.60
2018-03-27T19:35:21.643Z,14.63
2018-03-27T19:37:49.116Z,14.90
2018-03-27T19:40:16.565Z,14.30
2018-03-27T19:42:43.999Z,12.60
2018-03-27T19:45:11.475Z,13.77
2018-03-27T19:47:38.922Z,14.50
2018-03-27T19:50:06.402Z,14.17
2018-03-27T19:52:33.872Z,16.60
2018-03-27T19:55:01.318Z,15.93
2018-03-27T19:57:28.806Z,15.47
2018-03-27T19:59:57.042Z,16.53
2018-03-27T20:02:24.516Z,13.60
2018-03-27T20:04:52.035Z,14.70
2018-03-27T20:07:19.511Z,16.00
2018-03-27T20:09:46.982Z,13.27
2018-03-27T20:12:14.425Z,14.73
2018-03-27T20:14:41.887Z,16.97
2018-03-27T20:17:09.334Z,12.10
2018-03-27T20:19:36.816Z,17.50
2018-03-27T20:22:04.273Z,12.90
2018-03-27T20:24:31.729Z,16.27
2018-03-27T20:26:59.192Z,16.73
2018-03-27T20:29:26.658Z,16.23
2018-03-27T20:31:54.123Z,17.73
2018-03-27T20:34:21.692Z,17.00
2018-03-27T20:36:49.132Z,16.93
2018-03-27T20:39:16.598Z,18.13
2018-03-27T20:41:44.834Z,17.83
2018-03-27T20:44:12.287Z,15.00
2018-03-27T20:46:39.768Z,18.57
2018-03-27T20:49:07.228Z,17.27
2018-03-27T20:51:34.667Z,16.90
2018-03-27T20:54:02.116Z,17.33
2018-03-27T20:56:30.762Z,17.70
2018-03-27T20:58:58.242Z,19.53
2018-03-27T21:01:26.516Z,20.23
2018-03-27T21:03:53.971Z,19.33
2018-03-27T21:06:21.409Z,17.27
2018-03-27T21:08:48.891Z,20.47
2018-03-27T21:11:16.339Z,20.80
2018-03-27T21:13:43.792Z,22.30
2018-03-27T21:16:11.252Z,21.13
2018-03-27T21:18:38.712Z,21.93
2018-03-27T21:21:06.170Z,20.40
2018-03-27T21:23:33.610Z,23.80
2018-03-27T21:26:01.068Z,21.07
2018-03-27T21:28:28.503Z,22.37
2018-03-27T21:30:56.724Z,21.83
2018-03-27T21:33:24.175Z,22.60
2018-03-27T21:35:51.688Z,22.40
2018-03-27T21:38:19.121Z,23.00
2018-03-27T21:40:46.583Z,23.40
2018-03-27T21:43:14.035Z,19.90
2018-03-27T21:45:41.479Z,23.30
2018-03-27T21:48:08.964Z,22.37
2018-03-27T21:53:10.279Z,22.80
2018-03-27T21:55:38.034Z,22.50
2018-03-27T21:58:05.533Z,22.73
2018-03-27T22:00:32.964Z,23.10
2018-03-27T22:03:00.422Z,24.20
2018-03-27T22:05:27.883Z,26.10
2018-03-27T22:07:55.345Z,23.93
2018-03-27T22:10:22.798Z,25.73
2018-03-27T22:12:50.285Z,25.20
2018-03-27T22:15:17.740Z,25.93
2018-03-27T22:17:45.195Z,24.60
2018-03-27T22:20:12.648Z,27.07
2018-03-27T22:22:41.592Z,27.63
2018-03-27T22:25:09.047Z,28.13
2018-03-27T22:27:36.529Z,29.60
2018-03-27T22:30:03.970Z,28.20
2018-03-27T22:32:31.410Z,28.50
2018-03-27T22:34:58.897Z,27.40
2018-03-27T22:37:26.354Z,31.00
2018-03-27T22:39:53.835Z,30.23
2018-03-27T22:42:21.279Z,29.47
2018-03-27T22:44:48.827Z,29.10
2018-03-27T22:47:16.332Z,28.10
2018-03-27T22:49:43.792Z,30.30
2018-03-27T22:52:12.029Z,29.40
2018-03-27T22:54:39.570Z,29.10
2018-03-27T22:57:07.060Z,26.73
2018-03-27T22:59:35.282Z,32.73
2018-03-27T23:02:02.832Z,29.23
2018-03-27T23:04:31.064Z,26.07
2018-03-27T23:06:58.518Z,23.93
2018-03-27T23:09:26.026Z,29.27
2018-03-27T23:11:53.438Z,28.37
2018-03-27T23:14:21.156Z,26.40
2018-03-27T23:16:48.658Z,27.87
2018-03-27T23:19:16.103Z,25.13
2018-03-27T23:21:43.575Z,24.57
2018-03-27T23:24:11.048Z,27.67
2018-03-27T23:26:38.501Z,30.87
2018-03-27T23:29:05.951Z,23.03
2018-03-27T23:31:33.444Z,25.30
2018-03-27T23:34:01.641Z,25.50
2018-03-27T23:36:29.502Z,25.80
2018-03-27T23:38:56.944Z,26.60
2018-03-27T23:41:25.159Z,27.63
2018-03-27T23:43:52.629Z,23.30
2018-03-27T23:46:20.078Z,25.57
2018-03-27T23:48:47.555Z,28.00
2018-03-27T23:51:15.005Z,21.60
2018-03-27T23:53:42.471Z,20.60
2018-03-27T23:56:09.949Z,23.67
2018-03-27T23:58:38.179Z,27.10
